sensor_id;sensor_type;location;lat;lon;timestamp;temperature;humidity
13892;DHT22;7016;48.172;8.058;2023-06-26T00:01:15;19.30;99.90
13892;DHT22;7016;48.172;8.058;2023-06-26T00:04:01;19.40;99.90
13892;DHT22;7016;48.172;8.058;2023-06-26T00:06:47;19.20;99.90
13892;DHT22;7016;48.172;8.058;2023-06-26T00:09:33;19.20;99.90
13892;DHT22;7016;48.172;8.058;2023-06-26T00:12:20;19.20;99.90
13892;DHT22;7016;48.172;8.058;2023-06-26T00:15:07;19.20;99.90
13892;DHT22;7016;48.172;8.058;2023-06-26T00:17:53;19.10;99.90
13892;DHT22;7016;48.172;8.058;2023-06-26T00:20:40;18.80;99.90
13892;DHT22;7016;48.172;8.058;2023-06-26T00:23:26;18.90;99.90
13892;DHT22;7016;48.172;8.058;2023-06-26T00:26:13;18.80;99.90
13892;DHT22;7016;48.172;8.058;2023-06-26T00:28:59;18.60;99.90
13892;DHT22;7016;48.172;8.058;2023-06-26T00:31:45;18.70;99.90
13892;DHT22;7016;48.172;8.058;2023-06-26T00:34:32;18.70;99.90
13892;DHT22;7016;48.172;8.058;2023-06-26T00:37:18;18.70;99.90
13892;DHT22;7016;48.172;8.058;2023-06-26T00:40:04;18.60;99.90
13892;DHT22;7016;48.172;8.058;2023-06-26T00:42:51;18.60;99.90
13892;DHT22;7016;48.172;8.058;2023-06-26T00:45:37;18.50;99.90
13892;DHT22;7016;48.172;8.058;2023-06-26T00:48:23;18.60;99.90
13892;DHT22;7016;48.172;8.058;2023-06-26T00:51:10;18.70;99.90
13892;DHT22;7016;48.172;8.058;2023-06-26T00:53:57;18.70;99.90
13892;DHT22;7016;48.172;8.058;2023-06-26T00:56:45;18.70;99.90
13892;DHT22;7016;48.172;8.058;2023-06-26T00:59:32;18.50;99.90
13892;DHT22;7016;48.172;8.058;2023-06-26T01:02:18;18.50;99.90
13892;DHT22;7016;48.172;8.058;2023-06-26T01:05:06;18.30;99.90
13892;DHT22;7016;48.172;8.058;2023-06-26T01:07:53;18.20;99.90
13892;DHT22;7016;48.172;8.058;2023-06-26T01:10:39;18.30;99.90
13892;DHT22;7016;48.172;8.058;2023-06-26T01:13:27;18.30;99.90
13892;DHT22;7016;48.172;8.058;2023-06-26T01:16:15;18.30;99.90
13892;DHT22;7016;48.172;8.058;2023-06-26T01:19:11;18.30;99.90
13892;DHT22;7016;48.172;8.058;2023-06-26T01:22:02;18.10;99.90
13892;DHT22;7016;48.172;8.058;2023-06-26T01:28:03;18.30;99.90
13892;DHT22;7016;48.172;8.058;2023-06-26T01:30:51;18.20;99.90
13892;DHT22;7016;48.172;8.058;2023-06-26T01:33:39;18.20;99.90
13892;DHT22;7016;48.172;8.058;2023-06-26T01:36:26;18.10;99.90
13892;DHT22;7016;48.172;8.058;2023-06-26T01:39:15;17.90;99.90
13892;DHT22;7016;48.172;8.058;2023-06-26T01:42:02;17.90;99.90
13892;DHT22;7016;48.172;8.058;2023-06-26T01:44:48;18.00;99.90
13892;DHT22;7016;48.172;8.058;2023-06-26T01:47:38;18.00;99.90
13892;DHT22;7016;48.172;8.058;2023-06-26T01:50:28;17.80;99.90
13892;DHT22;7016;48.172;8.058;2023-06-26T01:53:19;17.70;99.90
13892;DHT22;7016;48.172;8.058;2023-06-26T01:56:11;17.70;99.90
13892;DHT22;7016;48.172;8.058;2023-06-26T01:59:00;17.70;99.90
13892;DHT22;7016;48.172;8.058;2023-06-26T02:01:48;17.60;99.90
13892;DHT22;7016;48.172;8.058;2023-06-26T02:04:34;17.60;99.90
13892;DHT22;7016;48.172;8.058;2023-06-26T02:07:20;17.50;99.90
13892;DHT22;7016;48.172;8.058;2023-06-26T02:10:07;17.70;99.90
13892;DHT22;7016;48.172;8.058;2023-06-26T02:12:54;17.70;99.90
13892;DHT22;7016;48.172;8.058;2023-06-26T02:15:40;17.60;99.90
13892;DHT22;7016;48.172;8.058;2023-06-26T02:18:26;17.60;99.90
13892;DHT22;7016;48.172;8.058;2023-06-26T02:21:13;17.70;99.90
13892;DHT22;7016;48.172;8.058;2023-06-26T02:24:00;17.70;99.90
13892;DHT22;7016;48.172;8.058;2023-06-26T02:26:46;17.70;99.90
13892;DHT22;7016;48.172;8.058;2023-06-26T02:29:32;17.60;99.90
13892;DHT22;7016;48.172;8.058;2023-06-26T02:32:18;17.50;99.90
13892;DHT22;7016;48.172;8.058;2023-06-26T02:35:05;17.40;99.90
13892;DHT22;7016;48.172;8.058;2023-06-26T02:37:51;17.30;99.90
13892;DHT22;7016;48.172;8.058;2023-06-26T02:40:37;17.30;99.90
13892;DHT22;7016;48.172;8.058;2023-06-26T02:43:24;17.30;99.90
13892;DHT22;7016;48.172;8.058;2023-06-26T02:46:10;17.30;99.90
13892;DHT22;7016;48.172;8.058;2023-06-26T02:48:56;17.20;99.90
13892;DHT22;7016;48.172;8.058;2023-06-26T02:51:42;17.30;99.90
13892;DHT22;7016;48.172;8.058;2023-06-26T02:54:29;17.50;99.90
13892;DHT22;7016;48.172;8.058;2023-06-26T02:57:15;17.50;99.90
13892;DHT22;7016;48.172;8.058;2023-06-26T03:00:03;17.50;99.90
13892;DHT22;7016;48.172;8.058;2023-06-26T03:02:49;17.40;99.90
13892;DHT22;7016;48.172;8.058;2023-06-26T03:05:36;17.20;99.90
13892;DHT22;7016;48.172;8.058;2023-06-26T03:08:22;17.20;99.90
13892;DHT22;7016;48.172;8.058;2023-06-26T03:11:09;17.10;99.90
13892;DHT22;7016;48.172;8.058;2023-06-26T03:13:55;17.20;99.90
13892;DHT22;7016;48.172;8.058;2023-06-26T03:16:42;17.20;99.90
13892;DHT22;7016;48.172;8.058;2023-06-26T03:19:28;17.20;99.90
13892;DHT22;7016;48.172;8.058;2023-06-26T03:22:14;17.20;99.90
13892;DHT22;7016;48.172;8.058;2023-06-26T03:25:02;17.20;99.90
13892;DHT22;7016;48.172;8.058;2023-06-26T03:27:49;17.10;99.90
13892;DHT22;7016;48.172;8.058;2023-06-26T03:30:35;17.00;99.90
13892;DHT22;7016;48.172;8.058;2023-06-26T03:33:21;17.00;99.90
13892;DHT22;7016;48.172;8.058;2023-06-26T03:36:07;17.10;99.90
13892;DHT22;7016;48.172;8.058;2023-06-26T03:38:54;17.10;99.90
13892;DHT22;7016;48.172;8.058;2023-06-26T03:41:42;17.00;99.90
13892;DHT22;7016;48.172;8.058;2023-06-26T03:44:29;16.90;99.90
13892;DHT22;7016;48.172;8.058;2023-06-26T03:47:15;16.90;99.90
13892;DHT22;7016;48.172;8.058;2023-06-26T03:50:01;17.00;99.90
13892;DHT22;7016;48.172;8.058;2023-06-26T03:52:47;16.90;99.90
13892;DHT22;7016;48.172;8.058;2023-06-26T03:55:33;16.90;99.90
13892;DHT22;7016;48.172;8.058;2023-06-26T03:58:20;16.90;99.90
13892;DHT22;7016;48.172;8.058;2023-06-26T04:01:06;16.80;99.90
13892;DHT22;7016;48.172;8.058;2023-06-26T04:03:53;16.80;99.90
13892;DHT22;7016;48.172;8.058;2023-06-26T04:06:39;16.80;99.90
13892;DHT22;7016;48.172;8.058;2023-06-26T04:09:25;16.80;99.90
13892;DHT22;7016;48.172;8.058;2023-06-26T04:12:12;16.80;99.90
13892;DHT22;7016;48.172;8.058;2023-06-26T04:14:58;17.00;99.90
13892;DHT22;7016;48.172;8.058;2023-06-26T04:17:44;17.00;99.90
13892;DHT22;7016;48.172;8.058;2023-06-26T04:20:30;17.00;99.90
13892;DHT22;7016;48.172;8.058;2023-06-26T04:23:16;17.00;99.90
13892;DHT22;7016;48.172;8.058;2023-06-26T04:26:04;17.00;99.90
13892;DHT22;7016;48.172;8.058;2023-06-26T04:28:50;17.00;99.90
13892;DHT22;7016;48.172;8.058;2023-06-26T04:31:37;17.00;99.90
13892;DHT22;7016;48.172;8.058;2023-06-26T04:34:27;17.00;99.90
13892;DHT22;7016;48.172;8.058;2023-06-26T04:37:14;17.10;99.90
13892;DHT22;7016;48.172;8.058;2023-06-26T04:40:03;17.00;99.90
13892;DHT22;7016;48.172;8.058;2023-06-26T04:42:50;16.90;99.90
13892;DHT22;7016;48.172;8.058;2023-06-26T04:45:36;17.00;99.90
13892;DHT22;7016;48.172;8.058;2023-06-26T04:48:22;17.10;99.90
13892;DHT22;7016;48.172;8.058;2023-06-26T04:51:08;17.10;99.90
13892;DHT22;7016;48.172;8.058;2023-06-26T04:53:54;17.10;99.90
13892;DHT22;7016;48.172;8.058;2023-06-26T04:56:41;17.10;99.90
13892;DHT22;7016;48.172;8.058;2023-06-26T04:59:27;17.10;99.90
13892;DHT22;7016;48.172;8.058;2023-06-26T05:02:13;17.10;99.90
13892;DHT22;7016;48.172;8.058;2023-06-26T05:05:00;17.10;99.90
13892;DHT22;7016;48.172;8.058;2023-06-26T05:07:47;17.20;99.90
13892;DHT22;7016;48.172;8.058;2023-06-26T05:10:33;17.30;99.90
13892;DHT22;7016;48.172;8.058;2023-06-26T05:13:19;17.30;99.90
13892;DHT22;7016;48.172;8.058;2023-06-26T05:16:06;17.40;99.90
13892;DHT22;7016;48.172;8.058;2023-06-26T05:18:54;17.40;99.90
13892;DHT22;7016;48.172;8.058;2023-06-26T05:21:41;17.40;99.90
13892;DHT22;7016;48.172;8.058;2023-06-26T05:24:27;17.40;99.90
13892;DHT22;7016;48.172;8.058;2023-06-26T05:27:14;17.40;99.90
13892;DHT22;7016;48.172;8.058;2023-06-26T05:30:07;17.50;99.90
13892;DHT22;7016;48.172;8.058;2023-06-26T05:32:54;17.50;99.90
13892;DHT22;7016;48.172;8.058;2023-06-26T05:35:41;17.70;99.90
13892;DHT22;7016;48.172;8.058;2023-06-26T05:38:28;17.80;99.90
13892;DHT22;7016;48.172;8.058;2023-06-26T05:41:14;18.10;99.90
13892;DHT22;7016;48.172;8.058;2023-06-26T05:44:00;18.40;99.90
13892;DHT22;7016;48.172;8.058;2023-06-26T05:46:47;18.60;99.90
13892;DHT22;7016;48.172;8.058;2023-06-26T05:49:33;19.00;99.90
13892;DHT22;7016;48.172;8.058;2023-06-26T05:52:20;19.00;99.90
13892;DHT22;7016;48.172;8.058;2023-06-26T05:55:06;19.20;99.90
13892;DHT22;7016;48.172;8.058;2023-06-26T05:57:53;19.40;99.90
13892;DHT22;7016;48.172;8.058;2023-06-26T06:00:41;19.60;99.90
13892;DHT22;7016;48.172;8.058;2023-06-26T06:03:27;19.70;99.90
13892;DHT22;7016;48.172;8.058;2023-06-26T06:06:13;19.90;99.90
13892;DHT22;7016;48.172;8.058;2023-06-26T06:08:59;20.10;99.90
13892;DHT22;7016;48.172;8.058;2023-06-26T06:11:45;20.20;99.90
13892;DHT22;7016;48.172;8.058;2023-06-26T06:14:32;20.30;99.90
13892;DHT22;7016;48.172;8.058;2023-06-26T06:17:22;20.40;99.90
13892;DHT22;7016;48.172;8.058;2023-06-26T06:20:09;20.70;99.90
13892;DHT22;7016;48.172;8.058;2023-06-26T06:22:55;20.70;99.90
13892;DHT22;7016;48.172;8.058;2023-06-26T06:25:41;20.80;99.90
13892;DHT22;7016;48.172;8.058;2023-06-26T06:28:27;20.90;99.90
13892;DHT22;7016;48.172;8.058;2023-06-26T06:31:13;21.00;99.90
13892;DHT22;7016;48.172;8.058;2023-06-26T06:34:00;21.10;99.90
13892;DHT22;7016;48.172;8.058;2023-06-26T06:36:46;21.20;99.90
13892;DHT22;7016;48.172;8.058;2023-06-26T06:39:33;21.50;99.90
13892;DHT22;7016;48.172;8.058;2023-06-26T06:42:19;21.40;99.90
13892;DHT22;7016;48.172;8.058;2023-06-26T06:45:05;21.60;99.90
13892;DHT22;7016;48.172;8.058;2023-06-26T06:47:52;21.60;99.90
13892;DHT22;7016;48.172;8.058;2023-06-26T06:50:38;21.90;99.90
13892;DHT22;7016;48.172;8.058;2023-06-26T06:53:24;21.90;99.90
13892;DHT22;7016;48.172;8.058;2023-06-26T06:56:10;22.10;99.90
13892;DHT22;7016;48.172;8.058;2023-06-26T06:58:57;22.20;99.90
13892;DHT22;7016;48.172;8.058;2023-06-26T07:01:43;22.30;99.90
13892;DHT22;7016;48.172;8.058;2023-06-26T07:04:29;22.50;99.90
13892;DHT22;7016;48.172;8.058;2023-06-26T07:07:19;22.60;99.90
13892;DHT22;7016;48.172;8.058;2023-06-26T07:10:11;22.90;99.90
13892;DHT22;7016;48.172;8.058;2023-06-26T07:12:57;22.90;99.90
13892;DHT22;7016;48.172;8.058;2023-06-26T07:15:44;23.10;99.90
13892;DHT22;7016;48.172;8.058;2023-06-26T07:18:31;23.20;99.90
13892;DHT22;7016;48.172;8.058;2023-06-26T07:21:17;23.40;99.90
13892;DHT22;7016;48.172;8.058;2023-06-26T07:24:03;23.50;99.90
13892;DHT22;7016;48.172;8.058;2023-06-26T07:26:49;23.60;99.90
13892;DHT22;7016;48.172;8.058;2023-06-26T07:29:35;23.80;99.90
13892;DHT22;7016;48.172;8.058;2023-06-26T07:32:21;23.90;99.90
13892;DHT22;7016;48.172;8.058;2023-06-26T07:35:08;24.20;99.90
13892;DHT22;7016;48.172;8.058;2023-06-26T07:37:54;24.30;99.90
13892;DHT22;7016;48.172;8.058;2023-06-26T07:40:40;24.50;99.90
13892;DHT22;7016;48.172;8.058;2023-06-26T07:43:26;24.70;99.90
13892;DHT22;7016;48.172;8.058;2023-06-26T07:46:13;24.70;99.90
13892;DHT22;7016;48.172;8.058;2023-06-26T07:49:04;24.90;99.90
13892;DHT22;7016;48.172;8.058;2023-06-26T07:51:51;25.10;99.90
13892;DHT22;7016;48.172;8.058;2023-06-26T07:54:37;25.20;99.90
13892;DHT22;7016;48.172;8.058;2023-06-26T07:57:23;25.30;99.90
13892;DHT22;7016;48.172;8.058;2023-06-26T08:00:10;25.50;98.70
13892;DHT22;7016;48.172;8.058;2023-06-26T08:02:56;25.40;98.90
13892;DHT22;7016;48.172;8.058;2023-06-26T08:05:42;25.50;98.40
13892;DHT22;7016;48.172;8.058;2023-06-26T08:08:29;25.50;99.10
13892;DHT22;7016;48.172;8.058;2023-06-26T08:11:15;25.70;99.00
13892;DHT22;7016;48.172;8.058;2023-06-26T08:14:01;25.80;98.50
13892;DHT22;7016;48.172;8.058;2023-06-26T08:16:47;25.90;98.00
13892;DHT22;7016;48.172;8.058;2023-06-26T08:19:33;26.00;97.70
13892;DHT22;7016;48.172;8.058;2023-06-26T08:22:19;26.00;97.70
13892;DHT22;7016;48.172;8.058;2023-06-26T08:25:06;26.10;97.50
13892;DHT22;7016;48.172;8.058;2023-06-26T08:27:52;26.20;97.10
13892;DHT22;7016;48.172;8.058;2023-06-26T08:30:39;26.10;96.90
13892;DHT22;7016;48.172;8.058;2023-06-26T08:33:26;26.10;97.10
13892;DHT22;7016;48.172;8.058;2023-06-26T08:36:12;26.30;98.00
13892;DHT22;7016;48.172;8.058;2023-06-26T08:38:59;26.50;97.60
13892;DHT22;7016;48.172;8.058;2023-06-26T08:41:45;26.50;95.90
13892;DHT22;7016;48.172;8.058;2023-06-26T08:44:31;26.60;96.60
13892;DHT22;7016;48.172;8.058;2023-06-26T08:47:19;26.70;96.60
13892;DHT22;7016;48.172;8.058;2023-06-26T08:50:10;26.90;96.00
13892;DHT22;7016;48.172;8.058;2023-06-26T08:56:14;27.20;96.20
13892;DHT22;7016;48.172;8.058;2023-06-26T08:59:02;27.20;95.00
13892;DHT22;7016;48.172;8.058;2023-06-26T09:01:48;27.10;94.80
13892;DHT22;7016;48.172;8.058;2023-06-26T09:04:35;27.00;94.80
13892;DHT22;7016;48.172;8.058;2023-06-26T09:07:21;26.90;94.50
13892;DHT22;7016;48.172;8.058;2023-06-26T09:10:08;26.90;95.10
13892;DHT22;7016;48.172;8.058;2023-06-26T09:12:58;26.90;95.70
13892;DHT22;7016;48.172;8.058;2023-06-26T09:15:45;26.70;95.30
13892;DHT22;7016;48.172;8.058;2023-06-26T09:18:32;26.70;96.20
13892;DHT22;7016;48.172;8.058;2023-06-26T09:21:18;26.80;95.90
13892;DHT22;7016;48.172;8.058;2023-06-26T09:24:06;26.60;96.00
13892;DHT22;7016;48.172;8.058;2023-06-26T09:26:53;26.70;96.30
13892;DHT22;7016;48.172;8.058;2023-06-26T09:29:39;26.50;96.60
13892;DHT22;7016;48.172;8.058;2023-06-26T09:32:25;26.50;97.00
13892;DHT22;7016;48.172;8.058;2023-06-26T09:35:12;26.50;96.80
13892;DHT22;7016;48.172;8.058;2023-06-26T09:37:58;26.60;97.30
13892;DHT22;7016;48.172;8.058;2023-06-26T09:40:44;26.60;96.80
13892;DHT22;7016;48.172;8.058;2023-06-26T09:43:30;26.60;97.10
13892;DHT22;7016;48.172;8.058;2023-06-26T09:46:27;26.60;97.80
13892;DHT22;7016;48.172;8.058;2023-06-26T09:49:14;26.70;96.40
13892;DHT22;7016;48.172;8.058;2023-06-26T09:52:01;26.70;96.70
13892;DHT22;7016;48.172;8.058;2023-06-26T09:54:48;26.70;97.70
13892;DHT22;7016;48.172;8.058;2023-06-26T09:57:35;26.80;97.70
13892;DHT22;7016;48.172;8.058;2023-06-26T10:00:21;26.80;96.40
13892;DHT22;7016;48.172;8.058;2023-06-26T10:03:07;26.70;97.00
13892;DHT22;7016;48.172;8.058;2023-06-26T10:05:54;26.70;97.50
13892;DHT22;7016;48.172;8.058;2023-06-26T10:08:41;26.60;97.80
13892;DHT22;7016;48.172;8.058;2023-06-26T10:11:55;26.50;97.00
13892;DHT22;7016;48.172;8.058;2023-06-26T10:14:42;26.40;96.90
13892;DHT22;7016;48.172;8.058;2023-06-26T10:17:32;26.50;97.20
13892;DHT22;7016;48.172;8.058;2023-06-26T10:20:20;26.60;96.60
13892;DHT22;7016;48.172;8.058;2023-06-26T10:23:07;26.70;97.20
13892;DHT22;7016;48.172;8.058;2023-06-26T10:25:55;26.80;96.50
13892;DHT22;7016;48.172;8.058;2023-06-26T10:28:44;26.90;96.80
13892;DHT22;7016;48.172;8.058;2023-06-26T10:31:34;26.90;96.40
13892;DHT22;7016;48.172;8.058;2023-06-26T10:34:21;26.90;96.90
13892;DHT22;7016;48.172;8.058;2023-06-26T10:37:08;27.00;97.20
13892;DHT22;7016;48.172;8.058;2023-06-26T10:39:54;27.00;96.70
13892;DHT22;7016;48.172;8.058;2023-06-26T10:42:40;26.90;96.30
13892;DHT22;7016;48.172;8.058;2023-06-26T10:45:28;27.00;96.80
13892;DHT22;7016;48.172;8.058;2023-06-26T10:48:14;27.00;96.40
13892;DHT22;7016;48.172;8.058;2023-06-26T10:51:13;27.10;95.80
13892;DHT22;7016;48.172;8.058;2023-06-26T10:54:01;27.20;96.60
13892;DHT22;7016;48.172;8.058;2023-06-26T10:56:53;27.40;96.20
13892;DHT22;7016;48.172;8.058;2023-06-26T10:59:42;27.40;95.60
13892;DHT22;7016;48.172;8.058;2023-06-26T11:02:47;27.40;95.70
13892;DHT22;7016;48.172;8.058;2023-06-26T11:05:34;27.40;96.00
13892;DHT22;7016;48.172;8.058;2023-06-26T11:08:20;27.40;96.30
13892;DHT22;7016;48.172;8.058;2023-06-26T11:11:07;27.50;96.00
13892;DHT22;7016;48.172;8.058;2023-06-26T11:13:54;27.60;96.20
13892;DHT22;7016;48.172;8.058;2023-06-26T11:16:42;27.70;95.50
13892;DHT22;7016;48.172;8.058;2023-06-26T11:19:28;27.40;96.00
13892;DHT22;7016;48.172;8.058;2023-06-26T11:22:15;27.40;96.50
13892;DHT22;7016;48.172;8.058;2023-06-26T11:25:02;27.50;96.10
13892;DHT22;7016;48.172;8.058;2023-06-26T11:27:49;27.60;96.40
13892;DHT22;7016;48.172;8.058;2023-06-26T11:30:35;27.60;95.30
13892;DHT22;7016;48.172;8.058;2023-06-26T11:33:26;27.60;95.90
13892;DHT22;7016;48.172;8.058;2023-06-26T11:36:13;27.60;96.00
13892;DHT22;7016;48.172;8.058;2023-06-26T11:39:01;27.60;95.20
13892;DHT22;7016;48.172;8.058;2023-06-26T11:41:47;27.50;95.20
13892;DHT22;7016;48.172;8.058;2023-06-26T11:44:40;27.50;95.70
13892;DHT22;7016;48.172;8.058;2023-06-26T11:47:27;27.60;95.60
13892;DHT22;7016;48.172;8.058;2023-06-26T11:50:16;27.60;95.70
13892;DHT22;7016;48.172;8.058;2023-06-26T11:53:05;27.60;95.90
13892;DHT22;7016;48.172;8.058;2023-06-26T11:55:53;27.60;96.30
13892;DHT22;7016;48.172;8.058;2023-06-26T11:59:02;27.60;96.20
13892;DHT22;7016;48.172;8.058;2023-06-26T12:01:50;27.40;95.90
13892;DHT22;7016;48.172;8.058;2023-06-26T12:04:38;27.40;95.80
13892;DHT22;7016;48.172;8.058;2023-06-26T12:07:26;27.30;95.70
13892;DHT22;7016;48.172;8.058;2023-06-26T12:10:14;27.30;95.60
13892;DHT22;7016;48.172;8.058;2023-06-26T12:13:01;27.40;96.50
13892;DHT22;7016;48.172;8.058;2023-06-26T12:15:48;27.50;96.90
13892;DHT22;7016;48.172;8.058;2023-06-26T12:18:37;27.60;96.00
13892;DHT22;7016;48.172;8.058;2023-06-26T12:24:31;28.10;97.70
13892;DHT22;7016;48.172;8.058;2023-06-26T12:27:18;28.00;95.30
13892;DHT22;7016;48.172;8.058;2023-06-26T12:30:05;27.80;95.50
13892;DHT22;7016;48.172;8.058;2023-06-26T12:32:52;27.70;95.70
13892;DHT22;7016;48.172;8.058;2023-06-26T12:35:38;27.50;96.10
13892;DHT22;7016;48.172;8.058;2023-06-26T12:38:33;27.40;96.30
13892;DHT22;7016;48.172;8.058;2023-06-26T12:41:19;27.30;96.10
13892;DHT22;7016;48.172;8.058;2023-06-26T12:44:25;27.20;96.10
13892;DHT22;7016;48.172;8.058;2023-06-26T12:47:17;27.50;96.80
13892;DHT22;7016;48.172;8.058;2023-06-26T12:50:07;27.70;96.20
13892;DHT22;7016;48.172;8.058;2023-06-26T12:52:53;27.70;96.60
13892;DHT22;7016;48.172;8.058;2023-06-26T12:55:40;27.90;95.40
13892;DHT22;7016;48.172;8.058;2023-06-26T12:58:26;27.80;96.00
13892;DHT22;7016;48.172;8.058;2023-06-26T13:01:12;27.10;95.50
13892;DHT22;7016;48.172;8.058;2023-06-26T13:04:02;27.90;95.80
13892;DHT22;7016;48.172;8.058;2023-06-26T13:06:49;27.90;95.80
13892;DHT22;7016;48.172;8.058;2023-06-26T13:09:36;27.90;95.10
13892;DHT22;7016;48.172;8.058;2023-06-26T13:12:25;27.90;95.40
13892;DHT22;7016;48.172;8.058;2023-06-26T13:15:13;27.80;95.00
13892;DHT22;7016;48.172;8.058;2023-06-26T13:18:00;27.70;94.70
13892;DHT22;7016;48.172;8.058;2023-06-26T13:20:46;27.60;94.00
13892;DHT22;7016;48.172;8.058;2023-06-26T13:23:32;27.50;95.10
13892;DHT22;7016;48.172;8.058;2023-06-26T13:26:19;27.50;94.80
13892;DHT22;7016;48.172;8.058;2023-06-26T13:29:07;27.50;94.50
13892;DHT22;7016;48.172;8.058;2023-06-26T13:31:53;27.60;94.80
13892;DHT22;7016;48.172;8.058;2023-06-26T13:34:40;27.80;94.50
13892;DHT22;7016;48.172;8.058;2023-06-26T13:37:27;27.80;93.70
13892;DHT22;7016;48.172;8.058;2023-06-26T13:40:13;28.00;93.40
13892;DHT22;7016;48.172;8.058;2023-06-26T13:42:59;28.10;93.70
13892;DHT22;7016;48.172;8.058;2023-06-26T13:45:45;28.30;94.30
13892;DHT22;7016;48.172;8.058;2023-06-26T13:48:32;28.30;92.80
13892;DHT22;7016;48.172;8.058;2023-06-26T13:51:18;28.30;92.70
13892;DHT22;7016;48.172;8.058;2023-06-26T13:54:04;28.30;93.30
13892;DHT22;7016;48.172;8.058;2023-06-26T13:56:50;28.10;91.50
13892;DHT22;7016;48.172;8.058;2023-06-26T13:59:38;28.10;91.10
13892;DHT22;7016;48.172;8.058;2023-06-26T14:02:25;28.10;91.40
13892;DHT22;7016;48.172;8.058;2023-06-26T14:05:12;28.30;92.30
13892;DHT22;7016;48.172;8.058;2023-06-26T14:07:58;28.10;90.50
13892;DHT22;7016;48.172;8.058;2023-06-26T14:10:45;28.10;91.00
13892;DHT22;7016;48.172;8.058;2023-06-26T14:13:31;28.00;90.70
13892;DHT22;7016;48.172;8.058;2023-06-26T14:16:17;28.20;91.00
13892;DHT22;7016;48.172;8.058;2023-06-26T14:19:04;28.30;91.20
13892;DHT22;7016;48.172;8.058;2023-06-26T14:21:51;28.20;89.80
13892;DHT22;7016;48.172;8.058;2023-06-26T14:24:37;28.10;90.30
13892;DHT22;7016;48.172;8.058;2023-06-26T14:27:23;27.80;88.80
13892;DHT22;7016;48.172;8.058;2023-06-26T14:30:10;27.80;90.10
13892;DHT22;7016;48.172;8.058;2023-06-26T14:32:56;27.80;90.30
13892;DHT22;7016;48.172;8.058;2023-06-26T14:35:42;28.00;91.70
13892;DHT22;7016;48.172;8.058;2023-06-26T14:38:28;27.90;90.30
13892;DHT22;7016;48.172;8.058;2023-06-26T14:41:14;27.90;89.20
13892;DHT22;7016;48.172;8.058;2023-06-26T14:44:01;27.90;90.60
13892;DHT22;7016;48.172;8.058;2023-06-26T14:46:47;27.90;88.70
13892;DHT22;7016;48.172;8.058;2023-06-26T14:49:33;27.80;87.30
13892;DHT22;7016;48.172;8.058;2023-06-26T14:52:19;27.70;88.00
13892;DHT22;7016;48.172;8.058;2023-06-26T14:55:05;27.80;89.90
13892;DHT22;7016;48.172;8.058;2023-06-26T14:57:52;27.90;87.80
13892;DHT22;7016;48.172;8.058;2023-06-26T15:00:38;28.00;90.00
13892;DHT22;7016;48.172;8.058;2023-06-26T15:03:24;28.10;87.30
13892;DHT22;7016;48.172;8.058;2023-06-26T15:06:11;28.20;89.30
13892;DHT22;7016;48.172;8.058;2023-06-26T15:08:57;28.10;86.90
13892;DHT22;7016;48.172;8.058;2023-06-26T15:11:43;27.90;86.50
13892;DHT22;7016;48.172;8.058;2023-06-26T15:14:29;27.90;88.40
13892;DHT22;7016;48.172;8.058;2023-06-26T15:17:15;27.80;88.50
13892;DHT22;7016;48.172;8.058;2023-06-26T15:20:01;27.60;87.40
13892;DHT22;7016;48.172;8.058;2023-06-26T15:22:48;27.50;87.80
13892;DHT22;7016;48.172;8.058;2023-06-26T15:25:34;27.30;87.10
13892;DHT22;7016;48.172;8.058;2023-06-26T15:28:22;27.30;86.80
13892;DHT22;7016;48.172;8.058;2023-06-26T15:31:08;27.50;88.30
13892;DHT22;7016;48.172;8.058;2023-06-26T15:33:54;27.50;88.10
13892;DHT22;7016;48.172;8.058;2023-06-26T15:36:41;27.60;86.00
13892;DHT22;7016;48.172;8.058;2023-06-26T15:39:27;27.40;86.20
13892;DHT22;7016;48.172;8.058;2023-06-26T15:42:13;27.40;86.60
13892;DHT22;7016;48.172;8.058;2023-06-26T15:44:59;27.40;86.70
13892;DHT22;7016;48.172;8.058;2023-06-26T15:47:45;27.60;87.70
13892;DHT22;7016;48.172;8.058;2023-06-26T15:50:31;27.60;85.10
13892;DHT22;7016;48.172;8.058;2023-06-26T15:53:19;27.50;86.30
13892;DHT22;7016;48.172;8.058;2023-06-26T15:56:07;27.60;89.30
13892;DHT22;7016;48.172;8.058;2023-06-26T15:58:54;27.50;86.10
13892;DHT22;7016;48.172;8.058;2023-06-26T16:01:41;27.40;85.10
13892;DHT22;7016;48.172;8.058;2023-06-26T16:04:27;27.30;86.00
13892;DHT22;7016;48.172;8.058;2023-06-26T16:07:16;27.30;86.20
13892;DHT22;7016;48.172;8.058;2023-06-26T16:10:03;27.30;85.70
13892;DHT22;7016;48.172;8.058;2023-06-26T16:12:49;27.20;84.70
13892;DHT22;7016;48.172;8.058;2023-06-26T16:15:35;27.20;85.40
13892;DHT22;7016;48.172;8.058;2023-06-26T16:18:22;27.20;87.10
13892;DHT22;7016;48.172;8.058;2023-06-26T16:21:08;27.20;84.20
13892;DHT22;7016;48.172;8.058;2023-06-26T16:23:54;27.20;85.40
13892;DHT22;7016;48.172;8.058;2023-06-26T16:26:41;27.20;85.80
13892;DHT22;7016;48.172;8.058;2023-06-26T16:29:27;27.20;86.50
13892;DHT22;7016;48.172;8.058;2023-06-26T16:32:13;27.20;87.80
13892;DHT22;7016;48.172;8.058;2023-06-26T16:35:00;27.20;86.70
13892;DHT22;7016;48.172;8.058;2023-06-26T16:37:46;27.30;87.10
13892;DHT22;7016;48.172;8.058;2023-06-26T16:40:32;27.10;86.00
13892;DHT22;7016;48.172;8.058;2023-06-26T16:43:19;27.10;86.80
13892;DHT22;7016;48.172;8.058;2023-06-26T16:46:05;26.90;84.00
13892;DHT22;7016;48.172;8.058;2023-06-26T16:48:51;26.80;84.30
13892;DHT22;7016;48.172;8.058;2023-06-26T16:51:42;26.70;84.00
13892;DHT22;7016;48.172;8.058;2023-06-26T16:54:28;26.70;84.40
13892;DHT22;7016;48.172;8.058;2023-06-26T16:57:15;26.70;84.50
13892;DHT22;7016;48.172;8.058;2023-06-26T17:00:02;26.60;82.70
13892;DHT22;7016;48.172;8.058;2023-06-26T17:02:48;26.70;84.00
13892;DHT22;7016;48.172;8.058;2023-06-26T17:05:35;26.60;85.00
13892;DHT22;7016;48.172;8.058;2023-06-26T17:08:21;26.70;85.80
13892;DHT22;7016;48.172;8.058;2023-06-26T17:11:07;26.70;83.40
13892;DHT22;7016;48.172;8.058;2023-06-26T17:13:53;26.70;84.50
13892;DHT22;7016;48.172;8.058;2023-06-26T17:16:40;26.60;84.60
13892;DHT22;7016;48.172;8.058;2023-06-26T17:19:26;26.50;83.40
13892;DHT22;7016;48.172;8.058;2023-06-26T17:22:12;26.50;84.10
13892;DHT22;7016;48.172;8.058;2023-06-26T17:24:58;26.50;85.40
13892;DHT22;7016;48.172;8.058;2023-06-26T17:27:48;26.50;86.40
13892;DHT22;7016;48.172;8.058;2023-06-26T17:30:34;26.50;84.40
13892;DHT22;7016;48.172;8.058;2023-06-26T17:33:21;26.50;86.10
13892;DHT22;7016;48.172;8.058;2023-06-26T17:36:07;26.40;84.00
13892;DHT22;7016;48.172;8.058;2023-06-26T17:38:53;26.40;84.40
13892;DHT22;7016;48.172;8.058;2023-06-26T17:41:39;26.30;84.40
13892;DHT22;7016;48.172;8.058;2023-06-26T17:44:25;26.20;84.40
13892;DHT22;7016;48.172;8.058;2023-06-26T17:47:14;26.30;84.90
13892;DHT22;7016;48.172;8.058;2023-06-26T17:50:04;26.30;85.40
13892;DHT22;7016;48.172;8.058;2023-06-26T17:52:50;26.30;86.50
13892;DHT22;7016;48.172;8.058;2023-06-26T17:55:36;26.20;86.10
13892;DHT22;7016;48.172;8.058;2023-06-26T17:58:23;26.20;87.20
13892;DHT22;7016;48.172;8.058;2023-06-26T18:01:09;26.00;85.00